Time;durP1;ratioP1;P1;durP2;ratioP2;P2;SDS_P1;SDS_P2;PMS_P1;PMS_P2;Temp;Humidity;BMP_temperature;BMP_pressure;BME280_temperature;BME280_humidity;BME280_pressure;Samples;Min_cycle;Max_cycle;Signal;HPM_P1;HPM_P2
2020/12/21 00:02:04;;;;;;;16.73;12.70;;;4.40;99.90;;;;;;6183147;28;20466;-57
2020/12/21 00:05:08;;;;;;;15.77;10.70;;;4.40;99.90;;;;;;6177568;28;20480;-59
2020/12/21 00:08:10;;;;;;;16.70;11.23;;;4.40;99.90;;;;;;6182515;28;20465;-58
2020/12/21 00:11:12;;;;;;;15.07;10.90;;;4.40;99.90;;;;;;6201595;28;20484;-59
2020/12/21 00:14:15;;;;;;;11.27;9.70;;;4.50;99.90;;;;;;6201480;28;20476;-58
2020/12/21 00:17:17;;;;;;;11.53;10.03;;;4.50;99.90;;;;;;6201385;28;20473;-57
2020/12/21 00:20:20;;;;;;;12.57;9.53;;;4.50;99.90;;;;;;6201213;28;20473;-59
2020/12/21 00:23:22;;;;;;;14.70;11.23;;;4.50;99.90;;;;;;6201538;28;20518;-59
2020/12/21 00:26:25;;;;;;;13.53;10.97;;;4.50;99.90;;;;;;6201280;28;20477;-59
2020/12/21 00:29:30;;;;;;;16.40;10.53;;;4.50;99.90;;;;;;6201063;28;20477;-57
2020/12/21 00:32:33;;;;;;;14.70;11.60;;;4.50;99.90;;;;;;6200709;28;20992;-57
2020/12/21 00:35:36;;;;;;;16.20;12.53;;;4.60;99.90;;;;;;6201075;28;20464;-58
2020/12/21 00:38:39;;;;;;;16.93;11.73;;;4.60;99.90;;;;;;6187615;28;20480;-56
2020/12/21 00:41:43;;;;;;;20.50;14.30;;;4.50;99.90;;;;;;6200785;28;20481;-58
2020/12/21 00:44:45;;;;;;;18.00;13.33;;;4.50;99.90;;;;;;6200981;28;20473;-58
2020/12/21 00:47:48;;;;;;;19.60;13.97;;;4.50;99.90;;;;;;6201127;28;20481;-57
2020/12/21 00:50:55;;;;;;;20.30;14.20;;;4.50;99.90;;;;;;6198983;28;20473;-56
2020/12/21 00:53:57;;;;;;;18.50;14.23;;;4.50;99.90;;;;;;6198840;28;20948;-56
2020/12/21 00:56:59;;;;;;;20.80;14.43;;;4.50;99.90;;;;;;6198513;28;20996;-56
2020/12/21 01:00:04;;;;;;;20.20;13.77;;;4.50;99.90;;;;;;6198810;28;20477;-56
2020/12/21 01:03:06;;;;;;;21.00;13.73;;;4.50;99.90;;;;;;6198662;28;20473;-56
2020/12/21 01:06:10;;;;;;;21.77;14.40;;;4.50;99.90;;;;;;6199575;28;20915;-56
2020/12/21 01:09:12;;;;;;;16.13;12.10;;;4.40;99.90;;;;;;6200638;28;20480;-57
2020/12/21 01:12:16;;;;;;;14.70;13.10;;;4.40;99.90;;;;;;6199641;28;20980;-57
2020/12/21 01:15:18;;;;;;;16.43;11.80;;;4.40;99.90;;;;;;6199610;28;20814;-57
2020/12/21 01:18:21;;;;;;;16.27;12.50;;;4.40;99.90;;;;;;6197776;28;20473;-57
2020/12/21 01:21:28;;;;;;;15.43;12.83;;;4.50;99.90;;;;;;6199606;28;20495;-57
2020/12/21 01:24:30;;;;;;;20.10;13.30;;;4.50;99.90;;;;;;6199954;28;20473;-56
2020/12/21 01:27:32;;;;;;;11.83;9.07;;;4.50;99.90;;;;;;6199887;28;20472;-56
2020/12/21 01:30:34;;;;;;;11.50;8.73;;;4.50;99.90;;;;;;6201900;28;20469;-56
2020/12/21 01:33:37;;;;;;;9.83;7.03;;;4.60;99.90;;;;;;6202713;28;20476;-56
2020/12/21 01:36:40;;;;;;;10.87;8.10;;;4.60;99.90;;;;;;6204267;28;20472;-57
2020/12/21 01:39:48;;;;;;;10.17;8.03;;;4.70;99.90;;;;;;6204217;28;20479;-56
2020/12/21 01:42:50;;;;;;;10.23;9.13;;;4.70;99.90;;;;;;6195490;28;20473;-57
2020/12/21 01:45:52;;;;;;;11.80;8.20;;;4.70;99.90;;;;;;6204246;28;20477;-56
2020/12/21 01:48:55;;;;;;;6.20;5.53;;;4.70;99.90;;;;;;6204315;28;20469;-56
2020/12/21 01:51:58;;;;;;;6.70;5.80;;;4.60;99.90;;;;;;6204101;28;20820;-56
2020/12/21 01:55:01;;;;;;;5.13;4.63;;;4.50;99.90;;;;;;6204183;28;20488;-56
2020/12/21 01:58:05;;;;;;;4.10;3.50;;;4.40;99.90;;;;;;6204189;28;20472;-57
2020/12/21 02:01:07;;;;;;;4.50;4.10;;;4.30;99.90;;;;;;6202110;28;20492;-56
2020/12/21 02:04:09;;;;;;;4.30;3.90;;;4.20;99.90;;;;;;6203939;28;20480;-57
2020/12/21 02:07:14;;;;;;;5.10;4.60;;;4.20;99.90;;;;;;6203939;28;20806;-57
2020/12/21 02:10:17;;;;;;;5.13;4.63;;;4.20;99.90;;;;;;6204354;28;20472;-56
2020/12/21 02:13:19;;;;;;;6.70;5.60;;;4.10;99.90;;;;;;6204375;28;20995;-57
2020/12/21 02:16:22;;;;;;;7.80;5.60;;;4.20;99.90;;;;;;6204277;28;20480;-57
2020/12/21 02:19:24;;;;;;;8.10;6.47;;;4.30;99.90;;;;;;6204493;28;20485;-56
2020/12/21 02:22:27;;;;;;;6.60;5.17;;;4.30;99.90;;;;;;6204433;28;20473;-57
2020/12/21 02:25:29;;;;;;;8.27;7.30;;;4.30;99.90;;;;;;6204060;28;20982;-57
2020/12/21 02:28:31;;;;;;;8.60;7.70;;;4.30;99.90;;;;;;6204107;28;20473;-56
2020/12/21 02:31:33;;;;;;;8.40;6.57;;;4.30;99.90;;;;;;6203924;28;20481;-56
2020/12/21 02:34:35;;;;;;;9.53;7.40;;;4.30;99.90;;;;;;6204176;28;20828;-56
2020/12/21 02:37:40;;;;;;;8.70;6.77;;;4.30;99.90;;;;;;6204076;28;20496;-56
2020/12/21 02:40:43;;;;;;;8.97;6.80;;;4.30;99.90;;;;;;6203671;28;20468;-57
2020/12/21 02:43:54;;;;;;;7.93;6.00;;;4.40;99.90;;;;;;6199957;28;20501;-56
2020/12/21 02:46:56;;;;;;;7.77;6.23;;;4.40;99.90;;;;;;6204324;28;20449;-56
2020/12/21 02:49:59;;;;;;;6.77;5.83;;;4.40;99.90;;;;;;6203668;28;20465;-57
2020/12/21 02:53:02;;;;;;;7.00;6.30;;;4.40;99.90;;;;;;6203829;28;20469;-56
2020/12/21 02:56:04;;;;;;;9.00;6.80;;;4.40;99.90;;;;;;6204079;28;20465;-56
2020/12/21 02:59:06;;;;;;;10.80;7.90;;;4.40;99.90;;;;;;6203980;28;20475;-57
2020/12/21 03:02:09;;;;;;;10.83;7.63;;;4.40;99.90;;;;;;6203118;28;20489;-57
2020/12/21 03:05:11;;;;;;;8.07;7.27;;;4.40;99.90;;;;;;6203125;28;20917;-56
2020/12/21 03:08:16;;;;;;;8.97;7.77;;;4.30;99.90;;;;;;6203118;28;20799;-57
2020/12/21 03:11:19;;;;;;;13.20;8.90;;;4.30;99.90;;;;;;6203230;28;20917;-57
2020/12/21 03:14:21;;;;;;;9.80;8.53;;;4.30;99.90;;;;;;6203274;28;20481;-56
2020/12/21 03:17:23;;;;;;;12.50;9.33;;;4.30;99.90;;;;;;6203037;28;20496;-56
2020/12/21 03:20:25;;;;;;;11.70;9.73;;;4.30;99.90;;;;;;6202998;28;20477;-56
2020/12/21 03:23:28;;;;;;;10.37;8.03;;;4.40;99.90;;;;;;6202743;28;20799;-56
2020/12/21 03:26:30;;;;;;;13.40;8.90;;;4.30;99.90;;;;;;6202972;28;20484;-57
2020/12/21 03:29:33;;;;;;;12.80;9.60;;;4.30;99.90;;;;;;6202566;28;20480;-57
2020/12/21 03:32:35;;;;;;;9.83;8.70;;;4.30;99.90;;;;;;6202629;28;20473;-56
2020/12/21 03:35:38;;;;;;;15.20;11.30;;;4.30;99.90;;;;;;6202394;28;20488;-56
2020/12/21 03:38:41;;;;;;;13.13;9.90;;;4.30;99.90;;;;;;6202446;28;20469;-57
2020/12/21 03:41:43;;;;;;;10.57;8.90;;;4.30;99.90;;;;;;6202038;28;20820;-57
2020/12/21 03:44:46;;;;;;;11.37;9.13;;;4.30;99.90;;;;;;6202142;28;20965;-57
2020/12/21 03:47:48;;;;;;;13.90;9.53;;;4.30;99.90;;;;;;6202218;28;20811;-57
2020/12/21 03:50:50;;;;;;;8.63;7.17;;;4.20;99.90;;;;;;6193374;28;20546;-57
2020/12/21 03:53:53;;;;;;;10.80;9.17;;;4.30;99.90;;;;;;6201731;28;20487;-57
2020/12/21 03:56:55;;;;;;;10.97;8.63;;;4.30;99.90;;;;;;6202374;28;20484;-57
2020/12/21 03:59:57;;;;;;;9.60;8.40;;;4.30;99.90;;;;;;6202168;28;20480;-56
2020/12/21 04:02:59;;;;;;;11.10;9.10;;;4.20;99.90;;;;;;6202610;28;20469;-56
2020/12/21 04:06:18;;;;;;;12.37;10.10;;;4.30;99.90;;;;;;6202428;28;20473;-56
2020/12/21 04:09:21;;;;;;;12.00;8.97;;;4.20;99.90;;;;;;6202281;28;20476;-57
2020/12/21 04:12:23;;;;;;;11.23;9.50;;;4.30;99.90;;;;;;6202113;28;20473;-57
2020/12/21 04:15:25;;;;;;;13.33;9.80;;;4.20;99.90;;;;;;6201990;28;20485;-56
2020/12/21 04:18:27;;;;;;;13.03;10.50;;;4.30;99.90;;;;;;6201901;28;20477;-56
2020/12/21 04:21:30;;;;;;;11.70;9.50;;;4.20;99.90;;;;;;6202016;28;20492;-57
2020/12/21 04:24:33;;;;;;;13.60;10.47;;;4.30;99.90;;;;;;6201687;28;20473;-56
2020/12/21 04:27:35;;;;;;;10.27;8.80;;;4.30;99.90;;;;;;6201692;28;20469;-59
2020/12/21 04:30:38;;;;;;;13.00;9.83;;;4.30;99.90;;;;;;6201340;28;20488;-57
2020/12/21 04:33:40;;;;;;;12.77;9.30;;;4.20;99.90;;;;;;6201290;28;20477;-56
2020/12/21 04:36:42;;;;;;;12.57;10.13;;;4.20;99.90;;;;;;6201262;28;20496;-56
2020/12/21 04:39:45;;;;;;;12.97;11.57;;;4.20;99.90;;;;;;6201738;28;20473;-56
2020/12/21 04:42:51;;;;;;;14.17;10.40;;;4.20;99.90;;;;;;6201072;28;20492;-56
2020/12/21 04:45:54;;;;;;;15.47;11.43;;;4.30;99.90;;;;;;6201132;28;20469;-56
2020/12/21 04:48:59;;;;;;;15.40;11.90;;;4.30;99.90;;;;;;6201198;28;20488;-56
2020/12/21 04:52:05;;;;;;;21.00;12.10;;;4.30;99.90;;;;;;6201260;28;20485;-56
2020/12/21 04:55:08;;;;;;;18.00;12.30;;;4.30;99.90;;;;;;6196874;28;20503;-57
2020/12/21 04:58:10;;;;;;;17.60;12.60;;;4.30;99.90;;;;;;6201135;28;20477;-57
2020/12/21 05:01:13;;;;;;;13.73;10.97;;;4.30;99.90;;;;;;6200923;28;20477;-57
2020/12/21 05:04:15;;;;;;;14.60;11.67;;;4.30;99.90;;;;;;6201074;28;20468;-57
2020/12/21 05:07:17;;;;;;;13.53;11.50;;;4.40;99.90;;;;;;6206740;28;20778;-57
2020/12/21 05:10:20;;;;;;;15.60;10.47;;;4.50;99.90;;;;;;6206233;28;20571;-56
2020/12/21 05:13:23;;;;;;;12.97;10.67;;;4.50;99.90;;;;;;6206249;28;20472;-57
2020/12/21 05:16:25;;;;;;;13.27;10.63;;;4.50;99.90;;;;;;6206055;28;20484;-57
2020/12/21 05:19:29;;;;;;;14.60;12.20;;;4.50;99.90;;;;;;6205513;28;20830;-57
2020/12/21 05:22:31;;;;;;;15.73;11.87;;;4.50;99.90;;;;;;6205527;28;20809;-56
2020/12/21 05:25:35;;;;;;;15.33;12.13;;;4.60;99.90;;;;;;6205611;28;20480;-57
2020/12/21 05:28:39;;;;;;;14.53;12.70;;;4.60;99.90;;;;;;6205872;28;20526;-57
2020/12/21 05:31:49;;;;;;;14.43;11.00;;;4.60;99.90;;;;;;6205710;28;20477;-57
2020/12/21 05:34:51;;;;;;;13.80;11.27;;;4.60;99.90;;;;;;6205369;28;20452;-57
2020/12/21 05:37:53;;;;;;;13.37;10.00;;;4.60;99.90;;;;;;6205533;28;20495;-57
2020/12/21 05:41:10;;;;;;;12.83;10.60;;;4.60;99.90;;;;;;6205193;28;20465;-57
2020/12/21 05:44:12;;;;;;;14.70;11.50;;;4.60;99.90;;;;;;6205575;28;20469;-57
2020/12/21 05:47:15;;;;;;;16.30;11.60;;;4.50;99.90;;;;;;6205050;28;20554;-57
2020/12/21 05:50:21;;;;;;;17.03;13.40;;;4.50;99.90;;;;;;6204958;28;20488;-57
2020/12/21 05:53:24;;;;;;;15.47;13.03;;;4.50;99.90;;;;;;6205477;28;20834;-57
2020/12/21 05:56:29;;;;;;;19.37;12.60;;;4.40;99.90;;;;;;6204994;28;20480;-57
2020/12/21 05:59:31;;;;;;;18.00;12.17;;;4.60;99.90;;;;;;6200340;28;20484;-57
2020/12/21 06:02:33;;;;;;;16.77;12.27;;;4.60;99.90;;;;;;6204937;28;20473;-57
2020/12/21 06:05:40;;;;;;;13.53;11.13;;;4.60;99.90;;;;;;6205123;28;20488;-57
2020/12/21 06:08:43;;;;;;;14.83;11.73;;;4.60;99.90;;;;;;6204912;28;20473;-57
2020/12/21 06:11:46;;;;;;;15.90;12.00;;;4.60;99.90;;;;;;6204735;28;20472;-57
2020/12/21 06:14:50;;;;;;;17.70;12.23;;;4.60;99.90;;;;;;6204630;28;20483;-57
2020/12/21 06:17:52;;;;;;;17.40;12.83;;;4.60;99.90;;;;;;6203951;28;20488;-57
2020/12/21 06:20:56;;;;;;;13.70;11.70;;;4.60;99.90;;;;;;6204425;28;20477;-57
2020/12/21 06:24:00;;;;;;;13.80;11.53;;;4.60;99.90;;;;;;6204307;28;20492;-57
2020/12/21 06:27:14;;;;;;;16.20;13.03;;;4.50;99.90;;;;;;6204276;28;20469;-57
2020/12/21 06:30:17;;;;;;;15.57;11.80;;;4.60;99.90;;;;;;6204072;28;20560;-57
2020/12/21 06:33:19;;;;;;;13.53;11.50;;;4.60;99.90;;;;;;6203834;28;20564;-57
2020/12/21 06:36:30;;;;;;;14.37;11.97;;;4.60;99.90;;;;;;6204030;28;20488;-57
2020/12/21 06:39:33;;;;;;;16.57;11.67;;;4.60;99.90;;;;;;6203830;28;20992;-57
2020/12/21 06:42:37;;;;;;;14.63;12.20;;;4.60;99.90;;;;;;6203546;28;20640;-57
2020/12/21 06:45:40;;;;;;;18.60;13.10;;;4.70;99.90;;;;;;6203759;28;20469;-57
2020/12/21 06:48:42;;;;;;;21.40;14.50;;;4.70;99.90;;;;;;6203648;28;20811;-57
2020/12/21 06:51:46;;;;;;;14.80;12.60;;;4.70;99.90;;;;;;6203395;28;20495;-57
2020/12/21 06:54:50;;;;;;;20.50;15.73;;;4.70;99.90;;;;;;6203786;28;20559;-57
2020/12/21 06:57:53;;;;;;;16.23;12.37;;;4.70;99.90;;;;;;6203453;28;20563;-58
2020/12/21 07:00:55;;;;;;;16.93;13.53;;;4.70;99.90;;;;;;6203135;28;20824;-58
2020/12/21 07:03:58;;;;;;;17.37;13.97;;;4.70;99.90;;;;;;6194528;28;20464;-58
2020/12/21 07:07:05;;;;;;;18.60;13.87;;;4.70;99.90;;;;;;6203531;28;20472;-57
2020/12/21 07:10:12;;;;;;;17.97;12.80;;;4.60;99.90;;;;;;6203201;28;20822;-58
2020/12/21 07:13:16;;;;;;;17.00;12.47;;;4.60;99.90;;;;;;6203248;28;20481;-57
2020/12/21 07:16:19;;;;;;;18.37;13.20;;;4.60;99.90;;;;;;6202274;28;20628;-57
2020/12/21 07:19:22;;;;;;;18.63;13.17;;;4.60;99.90;;;;;;6202551;28;20468;-57
2020/12/21 07:22:25;;;;;;;19.50;13.03;;;4.70;99.90;;;;;;6200564;28;20487;-57
2020/12/21 07:25:27;;;;;;;21.70;13.97;;;4.70;99.90;;;;;;6201059;28;20477;-58
2020/12/21 07:28:31;;;;;;;15.80;13.03;;;4.70;99.90;;;;;;6200257;28;20477;-57
2020/12/21 07:31:35;;;;;;;19.03;13.30;;;4.70;99.90;;;;;;6200851;28;20473;-58
2020/12/21 07:34:37;;;;;;;18.17;14.93;;;4.70;99.90;;;;;;6201573;28;20477;-58
2020/12/21 07:37:40;;;;;;;18.33;13.73;;;4.50;99.90;;;;;;6202133;28;20969;-57
2020/12/21 07:40:44;;;;;;;19.90;14.53;;;4.30;99.90;;;;;;6202483;28;20477;-57
2020/12/21 07:43:59;;;;;;;17.90;13.87;;;4.30;99.90;;;;;;6202997;28;20445;-57
2020/12/21 07:47:03;;;;;;;20.67;15.07;;;4.30;99.90;;;;;;6202574;28;20418;-57
2020/12/21 07:50:06;;;;;;;16.13;14.13;;;4.30;99.90;;;;;;6202549;28;20472;-57
2020/12/21 07:53:10;;;;;;;17.77;13.20;;;4.30;99.90;;;;;;6202002;28;20461;-57
2020/12/21 07:56:16;;;;;;;18.47;13.70;;;4.30;99.90;;;;;;6202201;28;20469;-57
2020/12/21 07:59:19;;;;;;;19.77;14.80;;;4.40;99.90;;;;;;6202383;28;20469;-57
2020/12/21 08:02:24;;;;;;;18.90;14.27;;;4.40;99.90;;;;;;6202107;28;20469;-58
2020/12/21 08:05:26;;;;;;;19.30;14.30;;;4.40;99.90;;;;;;6197551;28;20556;-58
2020/12/21 08:08:28;;;;;;;19.20;13.57;;;4.40;99.90;;;;;;6202159;28;20972;-57
2020/12/21 08:11:32;;;;;;;18.60;14.97;;;4.40;99.90;;;;;;6215483;28;20483;-57
2020/12/21 08:14:35;;;;;;;22.37;14.30;;;4.30;99.90;;;;;;6195190;28;20471;-57
2020/12/21 08:17:38;;;;;;;20.73;15.60;;;4.30;99.90;;;;;;6184853;28;20477;-57
2020/12/21 08:20:50;;;;;;;17.60;13.23;;;4.40;99.90;;;;;;6200743;28;20962;-57
2020/12/21 08:23:53;;;;;;;18.20;14.10;;;4.30;99.90;;;;;;6186010;28;20488;-57
2020/12/21 08:26:56;;;;;;;19.77;14.77;;;4.30;99.90;;;;;;6177221;28;20482;-58
2020/12/21 08:30:10;;;;;;;21.60;14.70;;;4.40;99.90;;;;;;6176944;28;20815;-57
2020/12/21 08:33:15;;;;;;;17.47;14.60;;;4.30;99.90;;;;;;6199257;28;20473;-57
2020/12/21 08:36:20;;;;;;;22.83;14.57;;;4.20;99.90;;;;;;6201190;28;20568;-57
2020/12/21 08:39:24;;;;;;;19.53;15.90;;;4.10;99.90;;;;;;6201117;28;20465;-57
2020/12/21 08:42:26;;;;;;;21.70;16.97;;;4.10;99.90;;;;;;6200050;28;20818;-58
2020/12/21 08:45:29;;;;;;;18.50;13.73;;;4.00;99.90;;;;;;6200253;28;20560;-58
2020/12/21 08:48:37;;;;;;;20.90;14.80;;;3.90;99.90;;;;;;6191517;28;20820;-57
2020/12/21 08:51:40;;;;;;;25.37;17.87;;;3.80;99.90;;;;;;6176008;28;20575;-58
2020/12/21 08:54:42;;;;;;;20.67;15.80;;;3.70;99.90;;;;;;6175969;28;20474;-58
2020/12/21 08:57:45;;;;;;;21.63;15.50;;;3.50;99.90;;;;;;6175753;28;20474;-58
2020/12/21 09:00:47;;;;;;;19.97;14.40;;;3.60;99.90;;;;;;6175571;28;20478;-58
2020/12/21 09:03:49;;;;;;;19.70;15.30;;;3.80;99.90;;;;;;6175477;28;20829;-57
2020/12/21 09:06:52;;;;;;;21.07;17.50;;;3.90;99.90;;;;;;6175518;28;20470;-58
2020/12/21 09:09:54;;;;;;;21.57;16.50;;;4.00;99.90;;;;;;6175680;28;20485;-59
2020/12/21 09:12:56;;;;;;;22.33;15.90;;;3.90;99.90;;;;;;6175943;28;20481;-58
2020/12/21 09:16:00;;;;;;;18.13;14.30;;;3.90;99.90;;;;;;6189482;28;20866;-58
2020/12/21 09:19:04;;;;;;;18.17;15.83;;;4.00;99.90;;;;;;6199538;28;20499;-58
2020/12/21 09:22:06;;;;;;;22.63;17.27;;;4.10;99.90;;;;;;6199458;28;20465;-56
2020/12/21 09:25:08;;;;;;;16.80;15.00;;;4.20;99.90;;;;;;6199081;28;20476;-56
2020/12/21 09:28:11;;;;;;;21.27;15.37;;;4.40;99.90;;;;;;6199131;28;20547;-57
2020/12/21 09:31:15;;;;;;;19.30;14.17;;;4.50;99.90;;;;;;6199311;28;20972;-57
2020/12/21 09:34:20;;;;;;;19.83;14.87;;;4.60;99.90;;;;;;6199253;28;20479;-57
2020/12/21 09:37:25;;;;;;;17.00;13.70;;;4.80;99.90;;;;;;6199231;28;20484;-57
2020/12/21 09:40:27;;;;;;;18.07;14.70;;;4.80;99.90;;;;;;6198967;28;20831;-58
2020/12/21 09:43:29;;;;;;;18.83;14.47;;;4.90;99.90;;;;;;6179329;28;596784;-58
2020/12/21 09:46:35;;;;;;;20.20;15.33;;;4.90;99.90;;;;;;6200209;28;20249;-57
2020/12/21 09:49:37;;;;;;;16.33;14.00;;;4.90;99.90;;;;;;6200055;28;20481;-57
2020/12/21 09:52:40;;;;;;;19.17;14.63;;;4.80;99.90;;;;;;6203812;28;20481;-59
2020/12/21 09:55:42;;;;;;;19.23;14.47;;;4.70;99.90;;;;;;6204663;28;20491;-60
2020/12/21 09:58:45;;;;;;;19.87;15.73;;;4.60;99.90;;;;;;6204162;28;20492;-57
2020/12/21 10:01:48;;;;;;;17.20;14.33;;;4.70;99.90;;;;;;6204247;28;20933;-57
2020/12/21 10:04:50;;;;;;;21.07;16.53;;;4.60;99.90;;;;;;6203005;28;20772;-57
2020/12/21 10:07:52;;;;;;;20.60;15.17;;;4.70;99.90;;;;;;6203500;28;20433;-58
2020/12/21 10:10:57;;;;;;;21.00;17.10;;;4.70;99.90;;;;;;6202669;28;20807;-57
2020/12/21 10:13:59;;;;;;;22.13;16.70;;;4.70;99.90;;;;;;6195455;28;20460;-58
2020/12/21 10:17:02;;;;;;;24.73;18.77;;;4.70;99.90;;;;;;6196711;28;20503;-58
2020/12/21 10:20:05;;;;;;;22.63;16.67;;;4.80;99.90;;;;;;6202672;28;20788;-59
2020/12/21 10:23:07;;;;;;;22.67;16.70;;;4.70;99.90;;;;;;6202707;28;20464;-57
2020/12/21 10:26:09;;;;;;;21.97;17.90;;;4.70;99.90;;;;;;6203579;28;20917;-58
2020/12/21 10:29:12;;;;;;;21.77;16.27;;;4.50;99.90;;;;;;6203751;28;20460;-57
2020/12/21 10:32:15;;;;;;;25.20;17.17;;;4.50;99.90;;;;;;6202982;28;20482;-57
2020/12/21 10:35:17;;;;;;;24.07;16.83;;;4.70;99.90;;;;;;6203426;28;20544;-58
2020/12/21 10:38:19;;;;;;;21.50;15.90;;;4.80;99.90;;;;;;6200919;28;20479;-57
2020/12/21 10:41:22;;;;;;;22.73;16.63;;;5.00;99.90;;;;;;6202017;28;20507;-59
2020/12/21 10:44:24;;;;;;;18.30;15.67;;;5.20;99.90;;;;;;6201119;28;20483;-57
2020/12/21 10:47:27;;;;;;;22.50;17.13;;;5.30;99.90;;;;;;6200779;28;20472;-57
2020/12/21 10:50:29;;;;;;;20.57;16.83;;;5.40;99.90;;;;;;6201218;28;20489;-57
2020/12/21 10:53:31;;;;;;;21.97;16.90;;;5.40;99.90;;;;;;6199974;28;20468;-57
2020/12/21 10:56:33;;;;;;;23.13;18.40;;;5.40;99.90;;;;;;6199855;28;20496;-57
2020/12/21 10:59:35;;;;;;;22.47;17.50;;;5.40;99.90;;;;;;6203086;28;20499;-58
2020/12/21 11:02:38;;;;;;;21.63;16.50;;;5.40;99.90;;;;;;6201564;28;20473;-61
2020/12/21 11:05:40;;;;;;;26.20;16.97;;;5.40;99.90;;;;;;6202934;28;20484;-60
2020/12/21 11:08:42;;;;;;;21.37;16.40;;;5.50;99.90;;;;;;6202549;28;20539;-60
2020/12/21 11:11:44;;;;;;;20.93;17.40;;;5.50;99.90;;;;;;6200888;28;20977;-60
2020/12/21 11:14:48;;;;;;;22.40;17.17;;;5.60;99.90;;;;;;6201067;28;20488;-60
2020/12/21 11:17:51;;;;;;;20.77;15.73;;;5.60;99.90;;;;;;6197316;28;20491;-59
2020/12/21 11:20:57;;;;;;;18.67;16.20;;;5.70;99.90;;;;;;6202113;28;20488;-60
2020/12/21 11:24:00;;;;;;;21.53;17.23;;;5.80;99.90;;;;;;6202334;28;20465;-60
2020/12/21 11:27:02;;;;;;;26.40;17.93;;;5.80;99.90;;;;;;6202066;28;20465;-61
2020/12/21 11:30:04;;;;;;;22.23;18.30;;;5.80;99.90;;;;;;6202148;28;20477;-60
2020/12/21 11:33:08;;;;;;;25.93;18.03;;;5.70;99.90;;;;;;6201603;28;20495;-60
2020/12/21 11:36:10;;;;;;;22.43;17.83;;;5.80;99.90;;;;;;6202048;28;20481;-60
2020/12/21 11:39:13;;;;;;;22.50;17.10;;;5.90;99.90;;;;;;6202031;28;20469;-60
2020/12/21 11:42:15;;;;;;;24.40;18.00;;;6.10;99.90;;;;;;6201392;28;20484;-61
2020/12/21 11:45:18;;;;;;;24.13;18.80;;;6.20;99.90;;;;;;6201739;28;20482;-59
2020/12/21 11:48:21;;;;;;;24.33;18.37;;;6.30;99.90;;;;;;6201819;28;20938;-59
2020/12/21 11:51:23;;;;;;;27.10;18.60;;;6.40;99.90;;;;;;6201360;28;20988;-59
2020/12/21 11:54:25;;;;;;;22.83;17.77;;;6.50;99.90;;;;;;6201988;28;20540;-59
2020/12/21 11:57:28;;;;;;;23.10;16.53;;;7.20;99.90;;;;;;6201694;28;20480;-60
2020/12/21 12:00:30;;;;;;;23.07;17.47;;;8.10;99.90;;;;;;6201605;28;20485;-60
2020/12/21 12:03:35;;;;;;;25.57;18.13;;;8.50;99.40;;;;;;6200977;28;21334;-60
2020/12/21 12:06:37;;;;;;;25.53;18.30;;;9.10;98.20;;;;;;6200999;28;20926;-60
2020/12/21 12:09:40;;;;;;;23.53;18.27;;;10.40;96.70;;;;;;6201013;28;20508;-61
2020/12/21 12:12:43;;;;;;;19.10;15.93;;;13.30;92.90;;;;;;6200965;28;20488;-60
2020/12/21 12:15:45;;;;;;;19.23;17.23;;;15.20;82.50;;;;;;6200224;28;20477;-61
2020/12/21 12:18:50;;;;;;;18.00;16.13;;;16.90;70.00;;;;;;6200837;28;20925;-61
2020/12/21 12:21:53;;;;;;;20.00;16.90;;;16.70;63.40;;;;;;6200051;28;20492;-61
2020/12/21 12:24:55;;;;;;;22.13;17.07;;;15.80;65.00;;;;;;6200613;28;20853;-62
2020/12/21 12:27:58;;;;;;;20.50;18.20;;;15.20;66.10;;;;;;6200749;28;20607;-62
2020/12/21 12:31:00;;;;;;;19.83;17.13;;;15.40;64.70;;;;;;6200560;28;20472;-61
2020/12/21 12:34:03;;;;;;;21.77;17.07;;;15.00;63.60;;;;;;6200796;28;20491;-61
2020/12/21 12:37:05;;;;;;;18.97;16.90;;;14.20;66.20;;;;;;6200425;28;20481;-61
2020/12/21 12:40:08;;;;;;;19.87;16.70;;;14.20;66.60;;;;;;6200759;28;20488;-61
2020/12/21 12:43:10;;;;;;;21.33;17.83;;;13.90;66.80;;;;;;6207265;28;20476;-60
2020/12/21 12:46:13;;;;;;;22.33;18.27;;;13.40;68.40;;;;;;6224762;28;20490;-59
2020/12/21 12:49:16;;;;;;;22.23;17.10;;;13.00;69.30;;;;;;6222583;28;20475;-60
2020/12/21 12:52:18;;;;;;;23.63;17.87;;;12.60;71.00;;;;;;6224125;28;20558;-59
2020/12/21 12:55:20;;;;;;;22.20;17.17;;;12.00;72.80;;;;;;6221774;28;20476;-59
2020/12/21 12:58:22;;;;;;;22.13;18.97;;;12.00;75.60;;;;;;6220284;28;20491;-60
2020/12/21 13:01:24;;;;;;;23.27;17.73;;;12.00;73.90;;;;;;6220237;28;20487;-59
2020/12/21 13:04:27;;;;;;;20.43;17.17;;;11.70;74.60;;;;;;6221299;28;20860;-60
2020/12/21 13:07:30;;;;;;;23.83;17.97;;;10.80;76.90;;;;;;6222181;28;20472;-59
2020/12/21 13:10:32;;;;;;;21.30;16.53;;;10.20;79.90;;;;;;6223379;28;20476;-59
2020/12/21 13:13:34;;;;;;;25.77;18.53;;;9.70;84.90;;;;;;6224349;28;20472;-59
2020/12/21 13:16:39;;;;;;;28.00;19.30;;;9.40;85.20;;;;;;6224038;28;20963;-59
2020/12/21 13:19:43;;;;;;;24.30;18.20;;;8.70;88.10;;;;;;6224065;28;20472;-59
2020/12/21 13:22:46;;;;;;;24.50;18.90;;;8.20;90.70;;;;;;6222959;28;20482;-59
2020/12/21 13:25:49;;;;;;;22.57;18.37;;;7.80;92.10;;;;;;6219017;28;20462;-59
2020/12/21 13:28:51;;;;;;;28.23;19.53;;;7.20;93.40;;;;;;6229179;28;20780;-60
2020/12/21 13:31:54;;;;;;;28.00;19.90;;;7.00;94.60;;;;;;6229061;28;20974;-59
2020/12/21 13:34:57;;;;;;;28.43;20.87;;;6.60;95.90;;;;;;6229490;28;20452;-60
2020/12/21 13:37:59;;;;;;;28.53;19.83;;;6.50;96.60;;;;;;6228641;28;20494;-59
2020/12/21 13:41:01;;;;;;;25.20;18.57;;;6.40;97.30;;;;;;6228936;28;20515;-59
2020/12/21 13:44:04;;;;;;;26.53;20.20;;;6.20;98.40;;;;;;6229190;28;20463;-59
2020/12/21 13:47:06;;;;;;;28.40;20.70;;;5.90;98.90;;;;;;6229399;28;20460;-59
2020/12/21 13:50:10;;;;;;;27.13;19.90;;;5.80;99.60;;;;;;6228583;28;20474;-59
2020/12/21 13:53:13;;;;;;;30.13;19.17;;;5.80;99.90;;;;;;6228541;28;20472;-59
2020/12/21 13:56:16;;;;;;;28.53;19.53;;;5.80;99.90;;;;;;6228537;28;20542;-59
2020/12/21 13:59:18;;;;;;;29.77;19.83;;;5.80;99.90;;;;;;6228778;28;20468;-59
2020/12/21 14:02:20;;;;;;;29.13;22.13;;;5.90;99.90;;;;;;6228737;28;20472;-59
2020/12/21 14:05:24;;;;;;;31.93;21.67;;;5.80;99.90;;;;;;6228307;28;20464;-59
2020/12/21 14:08:27;;;;;;;31.10;20.90;;;5.80;99.90;;;;;;6228522;28;20842;-60
2020/12/21 14:11:29;;;;;;;29.40;20.10;;;5.70;99.90;;;;;;6228725;28;20566;-60
2020/12/21 14:14:31;;;;;;;31.20;21.33;;;5.50;99.90;;;;;;6228692;28;20483;-58
2020/12/21 14:17:34;;;;;;;31.70;22.90;;;5.30;99.90;;;;;;6228364;28;20472;-59
2020/12/21 14:20:37;;;;;;;29.77;20.90;;;5.30;99.90;;;;;;6228540;28;20491;-60
2020/12/21 14:23:40;;;;;;;21.07;17.80;;;5.30;99.90;;;;;;6228903;28;20500;-59
2020/12/21 14:26:43;;;;;;;25.30;20.30;;;5.30;99.90;;;;;;6228203;28;20460;-60
2020/12/21 14:29:45;;;;;;;27.80;18.50;;;5.30;99.90;;;;;;6223158;28;20976;-60
2020/12/21 14:32:48;;;;;;;27.50;19.33;;;5.30;99.90;;;;;;6227740;28;20582;-61
2020/12/21 14:35:51;;;;;;;31.77;19.33;;;5.20;99.90;;;;;;6227826;28;20486;-61
2020/12/21 14:38:54;;;;;;;28.73;20.97;;;5.20;99.90;;;;;;6227096;28;20498;-60
2020/12/21 14:41:56;;;;;;;27.70;20.00;;;5.20;99.90;;;;;;6227197;28;20971;-60
2020/12/21 14:44:58;;;;;;;33.33;21.50;;;5.20;99.90;;;;;;6227845;28;20482;-60
2020/12/21 14:48:02;;;;;;;26.57;20.53;;;5.20;99.90;;;;;;6227675;28;20982;-60
2020/12/21 14:51:05;;;;;;;24.67;19.30;;;5.20;99.90;;;;;;6228100;28;20487;-60
2020/12/21 14:54:09;;;;;;;25.23;18.77;;;5.10;99.90;;;;;;6227823;28;20812;-60
2020/12/21 14:57:12;;;;;;;25.50;19.40;;;5.10;99.90;;;;;;6227880;28;20476;-60
2020/12/21 15:00:14;;;;;;;28.83;18.53;;;5.00;99.90;;;;;;6227845;28;20483;-60
2020/12/21 15:03:17;;;;;;;29.20;20.40;;;5.00;99.90;;;;;;6227637;28;20472;-59
2020/12/21 15:06:20;;;;;;;28.70;18.47;;;5.00;99.90;;;;;;6227380;28;20472;-60
2020/12/21 15:09:22;;;;;;;27.37;19.50;;;5.10;99.90;;;;;;6227746;28;20484;-60
2020/12/21 15:12:25;;;;;;;25.30;18.00;;;4.90;99.90;;;;;;6227317;28;20468;-59
2020/12/21 15:15:27;;;;;;;23.43;19.87;;;4.80;99.90;;;;;;6227426;28;20483;-59
2020/12/21 15:18:29;;;;;;;26.77;18.80;;;4.80;99.90;;;;;;6227402;28;20467;-59
2020/12/21 15:21:33;;;;;;;26.93;19.53;;;4.60;99.90;;;;;;6227664;28;20498;-59
2020/12/21 15:24:36;;;;;;;28.17;19.80;;;4.60;99.90;;;;;;6227545;28;20988;-59
2020/12/21 15:27:38;;;;;;;27.90;19.27;;;4.50;99.90;;;;;;6227531;28;20518;-59
2020/12/21 15:30:40;;;;;;;26.13;19.73;;;4.50;99.90;;;;;;6226711;28;20480;-60
2020/12/21 15:33:44;;;;;;;29.20;20.27;;;4.50;99.90;;;;;;6218427;28;20501;-60
2020/12/21 15:36:47;;;;;;;29.90;19.30;;;4.50;99.90;;;;;;6226776;28;20472;-60
2020/12/21 15:39:50;;;;;;;26.40;18.93;;;4.50;99.90;;;;;;6226810;28;20476;-59
2020/12/21 15:42:53;;;;;;;31.43;19.60;;;4.50;99.90;;;;;;6226545;28;20484;-60